Hovedside
METAR-TAF:

METAR-TAF

Lufthavner :

Ventspils, Latvia

breddegrad: 57-21-28N, lengdegrad: 021-32-39E, høyde over havet: 6 m

Gjeldene værobservasjon

Denne rapporten ble laget for 37 minutter siden, klokken 11:50 UTC
Vind 13 kt fra Vest, skiftende mellom Vest-sørvest og Nordvest
Temperatur 5°C
Luftfuktighet 75%
Trykk 1005 hPa
Sikt 10 km eller mer
ingen skyer under 1500 m og ingen bygeskyer

METAR: EVVA 241150Z AUTO 28013KT 250V310 CAVOK 05/01 Q1005

Tid: 14:27 (12:27 UTC)


TAF: fraværende

Værobservasjoner og værvarsel for over 4000 flyplasser (METAR- og TAF-rapporter).

Tilgjengelige stasjoner er representert av de røde og gule prikkene på kartet.

Hold musepekeren over prikken for å se navnet på stasjonen.

Klikk så for å se værobservasjoner og -varsler.

For å forandre kartet kan du klikke på den grønne knappen med svart kryss for å zoome inn, på den grønne knappen med strek for å zoome ut, eller på de grønne pilene for å se tilstøtende kart.


METAR-TAF: